Brookfield, Illinois
Current Conditions -  °F | °C
As of 3:53 AM on Friday 28 Nov 2014 (Local Time) from KMDW Reporting Station
Overcast Overcast  
Wind Chill: 13°   Ceiling: 9000
Heat Index: 21°   Visibility: 10mi
Dew Point: 12°   Wind: 6mph
Humidity: 68%   Direction: 170°S
Pressure: 30.36"   Gusts: NA
Location:  41.82°N, 87.84°W
Report Text: KMDW 280953Z 17005KT 10SM OVC090 M06/M11 A3036 RMK AO2 SLP296 T10611111 $
Loading
Personal Weather Stations






























Interactive Weather Map New forecast layout! Learn more

10-Day Weather Forecast

Advertisements
Track Severe Weather on mobile